6Q741 / YK-BAE 7700 Squawk Report (26th of January, 2020)

Aircraft A320 Reg No. YK-BAE Age 27 years old
Model A320 Jet engines 2 First flight 15-04-92
Registered 09-11-17 Rollout 04-92 Delivered 29-09-92
Construction No. 0322 Line No. N/A Series 231
ADSHEX 778825 Airline name Cham Wings Airlines Owner N/A
Airfield based Damascus~ ~YK First tracked 2017-11-23 12:21:00

Flight history for YK-BAE

Route Flight No Date Playback
Sharjah Intl (SHJ) - Damascus Intl (DAM) 6Q742 2020-02-17 13:55:00
Damascus Intl (DAM) - Sharjah Intl (SHJ) 6Q741 2020-02-17 09:49:00
Sharjah Intl (SHJ) - Damascus Intl (DAM) 6Q742 2020-02-16 15:49:00
Damascus Intl (DAM) - Sharjah Intl (SHJ) 6Q741 2020-02-16 11:42:00
Sharjah Intl (SHJ) - Damascus Intl (DAM) 6Q744 2020-02-15 16:19:00
Damascus Intl (DAM) - Sharjah Intl (SHJ) 6Q743 2020-02-15 13:30:00
???? 6Q748 2020-02-15 10:24:00
???? 6Q747 2020-02-15 00:45:00
Sharjah Intl (SHJ) - Damascus Intl (DAM) 6Q744 2020-02-14 23:14:00
Damascus Intl (DAM) - Sharjah Intl (SHJ) 6Q743 2020-02-14 11:21:00
Sharjah Intl (SHJ) - Damascus Intl (DAM) 6Q744 2020-02-13 15:44:00
Damascus Intl (DAM) - Sharjah Intl (SHJ) 6Q743 2020-02-13 11:49:00
Sharjah Intl (SHJ) - Damascus Intl (DAM) 6Q744 2020-02-12 15:56:00
Damascus Intl (DAM) - Sharjah Intl (SHJ) 6Q743 2020-02-12 11:55:00
Sharjah Intl (SHJ) - Damascus Intl (DAM) 6Q742 2020-02-11 14:12:00
Damascus Intl (DAM) - Sharjah Intl (SHJ) 6Q741 2020-02-11 10:03:00
Sharjah Intl (SHJ) - Damascus Intl (DAM) 6Q742 2020-02-10 14:14:00
Damascus Intl (DAM) - Sharjah Intl (SHJ) 6Q741 2020-02-10 09:57:00
???? 6Q748 2020-02-10 08:29:00
???? 6Q747 2020-02-10 02:01:00
Time Lat Lon Altitude Heading Speed Vertical Rate
2020-01-26 12:36:35 GMT 25.304398 55.531769 525 304 135 -512
2020-01-26 12:36:27 GMT 25.301327 55.536926 625 304 133 -576
2020-01-26 12:36:16 GMT 25.297743 55.542885 750 304 133 -576
2020-01-26 12:36:06 GMT 25.294298 55.548897 875 304 132 -640
2020-01-26 12:35:55 GMT 25.290527 55.555115 1,000 304 136 -832
2020-01-26 12:33:00 GMT 25.283825 55.658604 1,650 299 133 -512
2020-01-26 12:33:00 GMT 25.283825 55.658604 1,925 195 170 -64
2020-01-26 12:32:56 GMT 25.287083 55.659641 1,925 195 175 -64
2020-01-26 12:32:44 GMT 25.297028 55.662537 1,875 196 191 320
2020-01-26 12:32:29 GMT 25.310080 55.665806 1,900 192 195 0
2020-01-26 12:32:01 GMT 25.337540 55.663097 1,875 157 225 0
2020-01-26 12:28:54 GMT 25.505447 55.511829 3,550 138 279 -1408
2020-01-26 12:28:51 GMT 25.509369 55.508060 3,675 138 279 -1600
2020-01-26 12:28:41 GMT 25.517944 55.499317 3,800 138 282 -512
2020-01-26 12:28:16 GMT 25.543030 55.474243 4,300 135 290 -896
2020-01-26 12:28:10 GMT 25.548519 55.467224 4,450 125 294 -1920
2020-01-26 12:28:03 GMT 25.553146 55.457916 4,675 104 291 -1344
2020-01-26 12:27:55 GMT 25.556574 55.446960 5,150 104 291 -1344
2020-01-26 12:27:49 GMT 25.558319 55.438690 5,125 103 290 -1664
2020-01-26 12:27:45 GMT 25.559509 55.432690 5,225 103 291 -1536
2020-01-26 12:27:40 GMT 25.561752 55.423431 5,375 104 291 -1216
2020-01-26 12:27:34 GMT 25.563974 55.414520 5,500 106 294 -1344
2020-01-26 12:27:27 GMT 25.566376 55.405933 5,650 106 294 -1536
2020-01-26 12:27:23 GMT 25.567932 55.399750 5,775 106 294 -1728
2020-01-26 12:27:19 GMT 25.569654 55.393742 5,900 106 293 -1728
2020-01-26 12:27:14 GMT 25.571329 55.387367 6,025 107 293 -1536
2020-01-26 12:27:11 GMT 25.573059 55.381725 6,100 107 294 -960
2020-01-26 12:27:08 GMT 25.573751 55.378815 6,150 107 294 -896
2020-01-26 12:27:02 GMT 25.576492 55.369518 6,225 107 297 -896
2020-01-26 12:26:58 GMT 25.578369 55.363159 6,300 107 300 -1216
2020-01-26 12:26:53 GMT 25.579926 55.357361 6,600 107 302 -1344
2020-01-26 12:26:46 GMT 25.582689 55.347565 6,550 107 302 -1472
2020-01-26 12:26:42 GMT 25.584412 55.341541 6,650 107 303 -1472
2020-01-26 12:26:37 GMT 25.586971 55.332436 6,800 107 303 -1344
2020-01-26 12:26:32 GMT 25.588694 55.325748 7,900 106 306 -1664
2020-01-26 12:26:26 GMT 25.591278 55.316467 7,025 106 305 -1216
2020-01-26 12:26:20 GMT 25.593338 55.309093 7,150 106 306 -1472
2020-01-26 12:26:14 GMT 25.595901 55.299480 7,325 106 305 -1792
2020-01-26 12:26:11 GMT 25.597092 55.295208 7,900 106 308 0
2020-01-26 12:26:04 GMT 25.599838 55.284374 7,625 106 305 -1472
2020-01-26 12:26:00 GMT 25.603777 55.269470 7,900 106 308 0
2020-01-26 12:25:54 GMT 25.603777 55.269470 7,800 106 306 -704
2020-01-26 12:25:50 GMT 25.605499 55.263252 7,850 106 307 -512
2020-01-26 12:25:44 GMT 25.607758 55.254364 7,875 106 307 0
2020-01-26 12:25:40 GMT 25.609457 55.247654 7,900 106 307 0
2020-01-26 12:25:37 GMT 25.610853 55.242832 7,900 106 308 0
2020-01-26 12:25:34 GMT 25.612015 55.238190 7,900 106 308 0
2020-01-26 12:25:27 GMT 25.615135 55.226353 7,875 106 309 0
2020-01-26 12:25:24 GMT 25.616486 55.221897 7,875 108 312 0
2020-01-26 12:25:19 GMT 25.618057 55.216419 7,875 108 312 0
2020-01-26 12:25:13 GMT 25.621307 55.206806 7,875 116 311 0
2020-01-26 12:25:09 GMT 25.623516 55.200806 7,875 113 312 0
2020-01-26 12:24:58 GMT 25.630732 55.185829 7,875 122 309 -64
2020-01-26 12:24:48 GMT 25.639160 55.172272 7,875 124 309 0
2020-01-26 12:24:37 GMT 25.647583 55.158882 7,875 124 309 0
2020-01-26 12:24:27 GMT 25.656509 55.145161 7,900 125 308 -128
2020-01-26 12:24:16 GMT 25.665087 55.131779 7,925 125 306 -384
2020-01-26 12:24:06 GMT 25.673326 55.117889 8,075 120 311 -1280
2020-01-26 12:23:56 GMT 25.680031 55.103275 8,375 115 312 -1792
2020-01-26 12:23:45 GMT 25.686361 55.087158 8,675 111 313 -1536
2020-01-26 12:23:35 GMT 25.690979 55.072224 8,925 106 315 -1536
2020-01-26 12:23:24 GMT 25.695112 55.055756 9,225 105 316 -1792
2020-01-26 12:23:14 GMT 25.699219 55.039776 9,550 105 316 -1984
2020-01-26 12:23:03 GMT 25.703201 55.022430 9,875 103 318 -1728
2020-01-26 12:22:53 GMT 25.706451 55.005951 10,225 101 321 -2176
2020-01-26 12:22:42 GMT 25.709543 54.988281 10,775 100 316 -3584
2020-01-26 12:22:36 GMT 25.711266 54.978489 11,150 100 307 -3200
2020-01-26 12:22:32 GMT 25.712292 54.972996 11,350 100 307 -3136
2020-01-26 12:22:25 GMT 25.714188 54.961853 11,925 101 313 -896
2020-01-26 12:22:22 GMT 25.714874 54.957226 11,725 100 307 -1408
2020-01-26 12:22:16 GMT 25.716751 54.947254 11,875 101 311 -1088
2020-01-26 12:22:11 GMT 25.717941 54.940388 11,950 101 313 -832
2020-01-26 12:22:05 GMT 25.719818 54.930065 12,050 101 322 -640
2020-01-26 12:22:00 GMT 25.721043 54.923038 12,100 101 324 -576
2020-01-26 12:21:53 GMT 25.723276 54.911377 12,175 101 333 -704
2020-01-26 12:21:50 GMT 25.724115 54.906403 12,200 101 336 -768
2020-01-26 12:21:45 GMT 25.726210 54.895054 12,300 101 343 -896
2020-01-26 12:21:40 GMT 25.727373 54.888523 12,375 101 346 -832
2020-01-26 12:21:29 GMT 25.730804 54.870502 12,475 101 359 -704
2020-01-26 12:21:24 GMT 25.732864 54.858856 12,550 100 383 -640
2020-01-26 12:21:19 GMT 25.734262 54.850952 12,600 101 372 -768
2020-01-26 12:21:09 GMT 25.737671 54.831543 12,725 100 385 -704
2020-01-26 12:21:01 GMT 25.740456 54.815403 12,825 100 393 -576
2020-01-26 12:20:58 GMT 25.741287 54.811096 12,850 101 395 -448
2020-01-26 12:20:52 GMT 25.743851 54.796345 12,875 101 398 0
2020-01-26 12:20:48 GMT 25.745064 54.789494 12,875 101 399 0
2020-01-26 12:20:37 GMT 25.749020 54.768192 12,900 102 402 -192
2020-01-26 12:20:31 GMT 25.752092 54.754150 12,900 104 403 64
2020-01-26 12:20:27 GMT 25.753675 54.748138 12,875 105 403 64
2020-01-26 12:20:20 GMT 25.757586 54.733368 12,875 108 405 -192
2020-01-26 12:20:16 GMT 25.759506 54.727020 12,900 108 405 -192
2020-01-26 12:20:09 GMT 25.763964 54.712952 12,900 109 405 64
2020-01-26 12:20:06 GMT 25.765686 54.706928 12,900 109 405 64
2020-01-26 12:19:59 GMT 25.769970 54.693726 12,875 109 405 64
2020-01-26 12:19:55 GMT 25.772343 54.685795 12,875 109 405 0
2020-01-26 12:19:49 GMT 25.776993 54.671223 12,900 109 406 -64
2020-01-26 12:19:45 GMT 25.778908 54.664860 12,900 109 406 0
2020-01-26 12:19:38 GMT 25.783173 54.651489 12,875 109 408 64
2020-01-26 12:19:35 GMT 25.784912 54.645641 12,875 109 408 64
2020-01-26 12:19:27 GMT 25.790405 54.628117 12,875 109 412 -128
2020-01-26 12:19:23 GMT 25.792267 54.621952 12,900 109 414 -192
2020-01-26 12:19:17 GMT 25.796585 54.608715 12,925 109 416 -256
2020-01-26 12:19:14 GMT 25.802399 54.590199 12,975 109 416 -512
2020-01-26 12:19:07 GMT 25.802399 54.590199 13,050 109 418 -960
2020-01-26 12:19:03 GMT 25.805302 54.580387 13,100 109 419 -1216
2020-01-26 12:18:57 GMT 25.809448 54.567719 13,250 109 422 -1728
2020-01-26 12:18:53 GMT 25.811508 54.560852 13,325 109 424 -1600
2020-01-26 12:18:45 GMT 25.816475 54.545048 13,600 109 430 -1344
2020-01-26 12:18:42 GMT 25.818708 54.537998 13,600 109 432 -1472
2020-01-26 12:18:37 GMT 25.822495 54.526318 13,775 109 434 -2112
2020-01-26 12:18:32 GMT 25.825413 54.517063 13,950 109 435 -2432
2020-01-26 12:18:25 GMT 25.832115 54.495621 14,375 109 434 -2496
2020-01-26 12:18:18 GMT 25.834864 54.486694 14,525 109 435 -2304
2020-01-26 12:18:15 GMT 25.836731 54.480682 14,675 108 437 -2048
2020-01-26 12:18:11 GMT 25.839146 54.472752 14,775 108 436 -2048
2020-01-26 12:18:05 GMT 25.843597 54.458710 15,000 108 438 -2176
2020-01-26 12:18:01 GMT 25.845840 54.451508 15,125 108 439 -2240
2020-01-26 12:17:55 GMT 25.849960 54.438084 15,375 108 441 -2240
2020-01-26 12:17:50 GMT 25.852879 54.428329 15,525 108 443 -1984
2020-01-26 12:17:44 GMT 25.857347 54.413540 15,750 108 445 -1920
2020-01-26 12:17:40 GMT 25.859756 54.405800 15,875 108 449 -1984
2020-01-26 12:17:34 GMT 25.863510 54.393105 16,050 108 449 -2112
2020-01-26 12:17:30 GMT 25.866611 54.383698 16,250 109 448 -3008
2020-01-26 12:17:23 GMT 25.871080 54.369278 16,625 109 449 -3392
2020-01-26 12:17:19 GMT 25.873827 54.360512 16,850 108 451 -3264
2020-01-26 12:17:12 GMT 25.878433 54.344547 17,225 107 456 -3136
2020-01-26 12:17:08 GMT 25.880676 54.336979 17,400 107 457 -3136
2020-01-26 12:17:03 GMT 25.884293 54.323921 17,725 106 459 -3328
2020-01-26 12:16:58 GMT 25.887049 54.313976 17,975 106 461 -3648
2020-01-26 12:16:52 GMT 25.891342 54.298218 18,450 106 461 -4160
2020-01-26 12:16:48 GMT 25.893564 54.289944 18,700 106 460 -4608
2020-01-26 12:16:41 GMT 25.897335 54.276054 19,200 106 457 -5248
2020-01-26 12:16:37 GMT 25.899902 54.266605 19,575 106 455 -4864
2020-01-26 12:16:31 GMT 25.904388 54.249969 20,100 106 456 -3712
2020-01-26 12:16:27 GMT 25.906265 54.243286 20,250 106 458 -2752
2020-01-26 12:16:21 GMT 25.909859 54.229679 20,500 106 463 -2496
2020-01-26 12:16:16 GMT 25.912977 54.218216 20,725 106 466 -2880
2020-01-26 12:16:10 GMT 25.916376 54.205856 21,000 106 468 -3264
2020-01-26 12:16:06 GMT 25.918945 54.196594 21,250 106 469 -3328
2020-01-26 12:16:01 GMT 25.923079 54.181297 21,625 106 471 -3840
2020-01-26 12:15:55 GMT 25.926338 54.168777 22,000 106 470 -4288
2020-01-26 12:15:48 GMT 25.930481 54.153988 22,425 106 472 -3200
2020-01-26 12:15:45 GMT 25.932343 54.146961 23,400 106 473 -3008
2020-01-26 12:15:39 GMT 25.936798 54.130157 22,950 106 477 -3008
2020-01-26 12:15:34 GMT 25.942657 54.109531 23,400 106 481 -3328
2020-01-26 12:15:29 GMT 25.942657 54.109531 23,400 106 481 -3456
2020-01-26 12:15:24 GMT 25.951429 54.077614 24,550 107 492 -2688
2020-01-26 12:15:16 GMT 25.951429 54.077614 24,125 106 486 -2688
2020-01-26 12:15:08 GMT 25.956024 54.060455 24,450 107 488 -2496
2020-01-26 12:15:04 GMT 25.958954 54.049782 24,550 107 492 -2688
2020-01-26 12:14:56 GMT 25.964127 54.031281 24,975 106 500 -960
2020-01-26 12:14:49 GMT 25.968750 54.013920 24,975 106 506 0
2020-01-26 12:14:46 GMT 25.971308 54.004459 24,975 106 506 0
2020-01-26 12:14:38 GMT 25.976303 53.985935 25,000 106 514 -64
2020-01-26 12:14:35 GMT 25.978523 53.977364 25,000 106 514 -64
2020-01-26 12:14:25 GMT 25.985552 53.951267 25,050 106 522 -512
2020-01-26 12:14:16 GMT 25.991556 53.928452 25,200 106 530 -1408
2020-01-26 12:14:06 GMT 25.998779 53.901672 25,525 106 537 -2176
2020-01-26 12:14:02 GMT 26.001205 53.892551 25,650 106 538 -2304
2020-01-26 12:13:54 GMT 26.006699 53.872498 26,175 106 542 -2304
2020-01-26 12:13:43 GMT 26.015076 53.841923 26,425 106 547 -2688
2020-01-26 12:13:35 GMT 26.022995 53.812538 26,875 106 559 -1600
2020-01-26 12:13:21 GMT 26.031418 53.781651 27,150 106 568 -1536
2020-01-26 12:13:10 GMT 26.040157 53.748867 27,600 106 573 -2880
2020-01-26 12:12:59 GMT 26.047886 53.720188 28,200 106 572 -4032
2020-01-26 12:12:51 GMT 26.054216 53.697052 28,700 106 574 -2176
2020-01-26 12:12:48 GMT 26.056313 53.689129 28,825 106 573 -2560
2020-01-26 12:12:38 GMT 26.064697 53.658573 29,200 106 579 -1920
2020-01-26 12:12:28 GMT 26.072418 53.629917 29,550 106 583 -2240
2020-01-26 12:12:25 GMT 26.074654 53.621311 29,650 106 584 -2368
2020-01-26 12:12:22 GMT 26.076874 53.612762 29,775 106 586 -2112
2020-01-26 12:12:18 GMT 26.079483 53.603485 29,875 106 587 -2368
2020-01-26 12:12:15 GMT 26.081680 53.594730 30,000 106 587 -2304
2020-01-26 12:12:11 GMT 26.086012 53.579105 30,200 106 588 -2048
2020-01-26 12:12:04 GMT 26.090296 53.562786 30,375 106 590 -2048
2020-01-26 12:12:00 GMT 26.093554 53.550587 30,525 106 590 -1920
2020-01-26 12:11:54 GMT 26.098709 53.531403 30,725 106 590 -1856
2020-01-26 12:11:51 GMT 26.101933 53.519897 30,850 106 590 -1856
2020-01-26 12:11:42 GMT 26.107426 53.498928 31,000 106 590 -768
2020-01-26 12:11:39 GMT 26.110199 53.488960 31,025 106 590 -192
2020-01-26 12:11:32 GMT 26.115875 53.467506 31,050 106 591 0
2020-01-26 12:11:29 GMT 26.117752 53.460510 31,050 106 591 0
2020-01-26 12:11:22 GMT 26.123581 53.438873 31,050 106 591 0
2020-01-26 12:11:19 GMT 26.125999 53.429577 31,050 106 591 0
2020-01-26 12:11:13 GMT 26.130432 53.413300 31,050 107 589 0
2020-01-26 12:11:08 GMT 26.134232 53.400085 31,050 107 589 0
2020-01-26 12:11:03 GMT 26.138535 53.385628 31,050 108 589 0
2020-01-26 12:10:59 GMT 26.143503 53.369682 31,050 109 586 0
2020-01-26 12:10:54 GMT 26.146912 53.359558 31,050 110 586 0
2020-01-26 12:10:48 GMT 26.153280 53.341000 31,025 112 582 0
2020-01-26 12:10:42 GMT 26.159134 53.324890 31,025 112 583 0
2020-01-26 12:10:37 GMT 26.165663 53.307724 31,025 112 582 0
2020-01-26 12:10:31 GMT 26.169937 53.296024 31,025 112 583 0
2020-01-26 12:10:27 GMT 26.174377 53.283329 31,025 110 585 64
2020-01-26 12:10:21 GMT 26.179535 53.268059 31,025 110 585 64
2020-01-26 12:10:16 GMT 26.184677 53.252754 31,025 110 586 64
2020-01-26 12:10:13 GMT 26.187286 53.245396 31,025 110 586 0
2020-01-26 12:10:04 GMT 26.198593 53.211555 31,000 110 586 0
2020-01-26 12:09:55 GMT 26.204956 53.193054 31,000 110 585 0
2020-01-26 12:09:50 GMT 26.209259 53.179996 31,000 110 585 0
2020-01-26 12:09:42 GMT 26.217316 53.156467 31,000 110 583 64
2020-01-26 12:09:30 GMT 26.228136 53.123703 31,000 110 583 0
2020-01-26 12:09:24 GMT 26.234116 53.105839 31,000 110 583 0
2020-01-26 12:09:20 GMT 26.237411 53.096199 31,000 110 582 -64
2020-01-26 12:09:09 GMT 26.248215 53.064278 31,000 110 581 0
2020-01-26 12:09:04 GMT 26.252655 53.050751 31,000 110 581 0
2020-01-26 12:09:01 GMT 26.255585 53.041786 31,000 110 580 0
2020-01-26 12:08:56 GMT 26.260391 53.027740 31,000 110 580 0
2020-01-26 12:08:53 GMT 26.264008 53.016548 31,000 110 579 0
2020-01-26 12:08:49 GMT 26.266251 53.009861 30,975 110 579 0
2020-01-26 12:08:43 GMT 26.272751 52.990326 30,975 110 579 0
2020-01-26 12:08:39 GMT 26.276184 52.980167 30,975 110 579 0
2020-01-26 12:08:36 GMT 26.278931 52.971928 30,975 110 579 0
2020-01-26 12:08:32 GMT 26.283417 52.958557 30,975 110 578 0
2020-01-26 12:08:28 GMT 26.286839 52.948399 30,975 110 578 0
2020-01-26 12:08:22 GMT 26.292332 52.931759 30,975 110 577 64
2020-01-26 12:08:18 GMT 26.295914 52.921143 30,975 110 576 64
2020-01-26 12:08:11 GMT 26.301773 52.903263 30,950 110 576 64
2020-01-26 12:08:07 GMT 26.305552 52.892094 30,950 110 575 64
2020-01-26 12:07:57 GMT 26.315002 52.863773 30,950 110 574 0
2020-01-26 12:07:46 GMT 26.324753 52.834442 30,950 110 573 0
2020-01-26 12:07:36 GMT 26.334229 52.805786 30,950 110 571 0
2020-01-26 12:07:25 GMT 26.344330 52.775360 30,950 110 570 0
2020-01-26 12:07:19 GMT 26.349825 52.758884 30,950 110 569 0
2020-01-26 12:07:15 GMT 26.353268 52.748425 30,950 110 569 0
2020-01-26 12:07:04 GMT 26.363754 52.717014 30,950 110 567 0
2020-01-26 12:06:58 GMT 26.369049 52.701206 30,950 110 566 0
2020-01-26 12:06:54 GMT 26.372820 52.689743 30,950 110 566 0
2020-01-26 12:06:44 GMT 26.381945 52.662277 30,950 110 566 0
2020-01-26 12:06:38 GMT 26.387604 52.644775 30,950 110 565 0
2020-01-26 12:06:33 GMT 26.391541 52.633270 30,950 110 564 0
2020-01-26 12:06:23 GMT 26.400650 52.605442 30,975 110 563 0
2020-01-26 12:06:12 GMT 26.410950 52.574348 30,950 110 562 0
2020-01-26 12:06:00 GMT 26.421606 52.542274 30,950 110 562 0
2020-01-26 12:05:51 GMT 26.429810 52.517395 30,950 110 562 -64
2020-01-26 12:05:41 GMT 26.438599 52.490604 30,975 110 562 -64
2020-01-26 12:05:30 GMT 26.448561 52.460720 30,975 110 561 0
2020-01-26 12:05:20 GMT 26.457458 52.433598 31,000 110 560 0
2020-01-26 12:05:08 GMT 26.467787 52.402039 31,000 110 560 -64
2020-01-26 12:04:58 GMT 26.477190 52.373360 31,025 110 561 -64
2020-01-26 12:04:49 GMT 26.485430 52.348270 31,025 110 561 0
2020-01-26 12:04:36 GMT 26.496414 52.314667 31,025 110 562 0
2020-01-26 12:04:27 GMT 26.504837 52.289066 31,000 110 562 0
2020-01-26 12:04:17 GMT 26.513920 52.261276 31,000 109 562 0
2020-01-26 12:04:06 GMT 26.523193 52.232941 31,025 109 562 0
2020-01-26 12:03:56 GMT 26.532486 52.204597 31,025 109 562 0
2020-01-26 12:03:46 GMT 26.541386 52.177296 31,025 110 563 0
2020-01-26 12:03:35 GMT 26.550842 52.148315 31,000 109 563 0
2020-01-26 12:03:25 GMT 26.560101 52.119987 31,000 109 563 0
2020-01-26 12:03:14 GMT 26.570063 52.089405 31,000 110 563 0
2020-01-26 12:03:04 GMT 26.578812 52.062653 31,025 110 563 0
2020-01-26 12:02:53 GMT 26.588104 52.034309 31,025 110 562 0
2020-01-26 12:02:42 GMT 26.598040 52.004261 31,000 110 562 64
2020-01-26 12:02:32 GMT 26.607676 51.974945 31,000 110 561 0
2020-01-26 12:02:21 GMT 26.617266 51.946106 31,000 110 561 0
2020-01-26 12:02:11 GMT 26.625877 51.920013 31,025 109 561 -64
2020-01-26 12:02:02 GMT 26.634430 51.892677 31,025 108 562 0
2020-01-26 12:01:49 GMT 26.644409 51.859562 31,025 108 563 0
2020-01-26 12:01:39 GMT 26.652832 51.832123 31,025 108 562 0
2020-01-26 12:01:29 GMT 26.661398 51.803440 31,025 108 561 0
2020-01-26 12:01:18 GMT 26.670135 51.774261 31,025 108 561 0
2020-01-26 12:01:10 GMT 26.677872 51.748508 31,000 108 561 0
2020-01-26 12:01:07 GMT 26.679749 51.741821 31,000 108 561 0
2020-01-26 12:00:58 GMT 26.686954 51.718300 31,000 108 560 0
2020-01-26 12:00:48 GMT 26.695541 51.689636 30,975 108 560 64
2020-01-26 12:00:45 GMT 26.697601 51.682590 30,975 108 560 64
2020-01-26 12:00:36 GMT 26.704645 51.658878 31,000 108 560 0
2020-01-26 12:00:26 GMT 26.713583 51.629192 31,000 108 560 -64
2020-01-26 12:00:14 GMT 26.723557 51.596409 31,000 108 558 0
2020-01-26 12:00:06 GMT 26.730247 51.574631 31,000 108 558 0
2020-01-26 11:59:56 GMT 26.741562 51.536865 30,975 108 558 64
2020-01-26 11:59:45 GMT 26.749474 51.510563 30,950 108 559 0
2020-01-26 11:59:34 GMT 26.756516 51.487583 30,975 108 558 0
2020-01-26 11:59:24 GMT 26.764931 51.459751 30,975 108 558 0
2020-01-26 11:59:13 GMT 26.773682 51.430267 30,975 108 557 0
2020-01-26 11:59:04 GMT 26.783798 51.396946 30,975 108 555 0
2020-01-26 11:58:54 GMT 26.789974 51.376350 30,975 108 555 0
2020-01-26 11:58:51 GMT 26.791883 51.370327 30,975 108 555 -64
2020-01-26 11:58:41 GMT 26.799936 51.343708 31,000 108 554 -64
2020-01-26 11:58:32 GMT 26.809525 51.311646 30,975 108 554 0
2020-01-26 11:58:23 GMT 26.815533 51.291523 30,975 108 553 0
2020-01-26 11:58:10 GMT 26.824997 51.259979 30,975 108 554 64
2020-01-26 11:58:02 GMT 26.832733 51.234535 30,950 109 553 0
2020-01-26 11:57:49 GMT 26.843353 51.202972 30,950 111 550 0
2020-01-26 11:57:39 GMT 26.853146 51.176376 30,950 113 547 0
2020-01-26 11:57:28 GMT 26.864136 51.149078 30,950 115 544 0
2020-01-26 11:57:18 GMT 26.875305 51.123322 30,925 116 541 0
2020-01-26 11:57:07 GMT 26.887802 51.097050 30,925 119 537 0
2020-01-26 11:56:57 GMT 26.901049 51.071110 30,925 120 534 0
2020-01-26 11:56:49 GMT 26.912384 51.050358 30,950 121 532 0
2020-01-26 11:56:45 GMT 26.916321 51.043308 30,925 121 532 0
2020-01-26 11:56:36 GMT 26.927490 51.023254 30,925 121 532 -64
2020-01-26 11:56:28 GMT 26.939640 51.001282 30,975 121 531 -128
2020-01-26 11:56:24 GMT 26.942759 50.995579 30,975 121 531 -192
2020-01-26 11:56:15 GMT 26.954590 50.974854 31,000 123 528 -64
2020-01-26 11:56:07 GMT 26.967665 50.953693 31,000 125 525 -64
2020-01-26 11:56:04 GMT 26.969852 50.950100 31,000 125 524 0
2020-01-26 11:55:54 GMT 26.985168 50.927124 31,000 127 521 0
2020-01-26 11:55:45 GMT 26.998032 50.908726 31,000 128 520 0
2020-01-26 11:55:33 GMT 27.017075 50.883335 31,000 130 518 0
2020-01-26 11:55:23 GMT 27.033583 50.863056 31,000 133 515 0
2020-01-26 11:55:15 GMT 27.048340 50.845730 31,025 134 513 0
2020-01-26 11:55:03 GMT 27.065331 50.826347 31,025 134 514 0
2020-01-26 11:54:54 GMT 27.082462 50.807121 31,025 134 514 0
2020-01-26 11:54:49 GMT 27.089167 50.799564 31,025 134 514 0
2020-01-26 11:54:42 GMT 27.100845 50.786842 31,025 136 512 0
2020-01-26 11:54:39 GMT 27.106018 50.781349 31,025 137 510 0
2020-01-26 11:54:30 GMT 27.121984 50.765076 31,025 138 509 0
2020-01-26 11:54:22 GMT 27.136734 50.750980 31,025 140 506 0
2020-01-26 11:54:14 GMT 27.151127 50.737766 31,025 141 504 0
2020-01-26 11:54:11 GMT 27.156294 50.733280 31,025 142 503 0
2020-01-26 11:54:07 GMT 27.164207 50.726624 31,025 142 503 0
2020-01-26 11:54:02 GMT 27.175009 50.717487 31,025 143 501 0
2020-01-26 11:53:58 GMT 27.180176 50.713203 31,025 144 500 0
2020-01-26 11:53:48 GMT 27.199219 50.698433 31,025 145 499 64
2020-01-26 11:53:41 GMT 27.215694 50.685902 31,000 145 499 0
2020-01-26 11:53:38 GMT 27.219452 50.682987 31,000 145 500 0
2020-01-26 11:53:30 GMT 27.234924 50.671329 31,000 145 500 0
2020-01-26 11:53:27 GMT 27.240927 50.666676 31,000 145 500 0
2020-01-26 11:53:20 GMT 27.255497 50.655689 31,000 145 500 0
2020-01-26 11:53:16 GMT 27.260147 50.652103 31,000 145 500 0
2020-01-26 11:53:09 GMT 27.275608 50.640423 31,000 145 500 0
2020-01-26 11:53:06 GMT 27.281286 50.636147 31,000 145 500 0
2020-01-26 11:52:58 GMT 27.302376 50.619984 31,000 145 500 0
2020-01-26 11:52:48 GMT 27.315783 50.609684 31,000 145 500 64
2020-01-26 11:52:45 GMT 27.320755 50.605930 31,000 145 500 0
2020-01-26 11:52:35 GMT 27.339478 50.591522 30,975 145 500 0
2020-01-26 11:52:27 GMT 27.360565 50.575191 30,975 145 501 0
2020-01-26 11:52:14 GMT 27.380489 50.559929 30,975 145 500 0
2020-01-26 11:52:07 GMT 27.395433 50.548573 30,975 145 499 0
2020-01-26 11:52:03 GMT 27.401413 50.543949 31,000 145 499 0
2020-01-26 11:51:53 GMT 27.420992 50.529030 31,000 145 498 0
2020-01-26 11:51:46 GMT 27.441612 50.513233 30,975 145 499 0
2020-01-26 11:51:35 GMT 27.455338 50.502598 30,975 145 498 0
2020-01-26 11:51:32 GMT 27.460979 50.498287 31,000 145 498 0
2020-01-26 11:51:22 GMT 27.480064 50.483707 31,000 145 498 0
2020-01-26 11:51:10 GMT 27.501160 50.467564 31,000 145 498 0
2020-01-26 11:51:01 GMT 27.520203 50.453003 30,975 145 498 0
2020-01-26 11:50:54 GMT 27.534622 50.441807 30,975 145 499 0
2020-01-26 11:50:48 GMT 27.544262 50.434429 30,975 145 499 0
2020-01-26 11:50:42 GMT 27.554874 50.426189 30,975 145 499 0
2020-01-26 11:50:39 GMT 27.560577 50.421909 30,975 145 499 0
2020-01-26 11:50:32 GMT 27.577057 50.409210 31,000 145 498 0
2020-01-26 11:50:27 GMT 27.583923 50.403900 31,000 145 498 0
2020-01-26 11:50:22 GMT 27.594212 50.395977 31,000 145 497 0
2020-01-26 11:50:19 GMT 27.600220 50.391335 31,000 145 497 0
2020-01-26 11:50:11 GMT 27.613953 50.380863 31,000 145 496 0
2020-01-26 11:50:08 GMT 27.619629 50.376595 30,975 145 496 0
2020-01-26 11:50:01 GMT 27.634186 50.365421 31,000 145 496 0
2020-01-26 11:49:56 GMT 27.642765 50.358742 30,975 145 496 0
2020-01-26 11:49:50 GMT 27.653938 50.350342 31,000 145 496 0
2020-01-26 11:49:47 GMT 27.659958 50.345676 31,000 145 496 0
2020-01-26 11:49:41 GMT 27.673325 50.335365 31,000 145 496 0
2020-01-26 11:49:34 GMT 27.685547 50.326099 31,000 145 497 0
2020-01-26 11:49:30 GMT 27.693420 50.319923 31,000 145 497 0
2020-01-26 11:49:26 GMT 27.699600 50.315155 31,000 145 497 0
2020-01-26 11:49:20 GMT 27.713150 50.304688 30,975 145 497 64
2020-01-26 11:49:16 GMT 27.719696 50.299660 30,975 145 499 0
2020-01-26 11:49:09 GMT 27.733402 50.289021 30,975 145 501 0
2020-01-26 11:49:04 GMT 27.743038 50.281677 30,975 145 501 128
2020-01-26 11:48:59 GMT 27.753342 50.273594 30,975 145 501 -64
2020-01-26 11:48:55 GMT 27.759333 50.268787 30,975 145 501 0
2020-01-26 11:48:48 GMT 27.773251 50.258121 30,975 145 501 -64
2020-01-26 11:48:43 GMT 27.781998 50.251465 30,975 145 501 -64
2020-01-26 11:48:38 GMT 27.792801 50.243019 31,000 145 502 -64
2020-01-26 11:48:33 GMT 27.801229 50.236519 31,000 145 502 0
2020-01-26 11:48:28 GMT 27.813080 50.227421 31,000 145 502 64
2020-01-26 11:48:24 GMT 27.819580 50.222443 30,975 145 502 0
2020-01-26 11:48:16 GMT 27.833490 50.211639 30,975 145 504 0
2020-01-26 11:48:11 GMT 27.843126 50.204247 30,975 145 505 0
2020-01-26 11:48:02 GMT 27.861141 50.190144 30,975 145 504 0
2020-01-26 11:47:51 GMT 27.882431 50.173836 30,975 145 503 0
2020-01-26 11:47:40 GMT 27.902344 50.158394 31,000 145 500 0
2020-01-26 11:47:31 GMT 27.920197 50.144505 31,000 145 499 0
2020-01-26 11:47:21 GMT 27.940468 50.128891 31,000 145 499 0
2020-01-26 11:47:10 GMT 27.961369 50.112736 31,000 145 497 0
2020-01-26 11:46:55 GMT 27.988323 50.091625 31,000 145 497 0
2020-01-26 11:46:49 GMT 28.000031 50.082550 30,975 145 497 0
2020-01-26 11:46:42 GMT 28.014587 50.071350 30,975 145 497 0
2020-01-26 11:46:28 GMT 28.039490 50.051968 31,000 145 494 0
2020-01-26 11:46:17 GMT 28.060944 50.035347 31,000 145 491 128
2020-01-26 11:46:07 GMT 28.078960 50.021397 30,925 145 489 576
2020-01-26 11:45:57 GMT 28.097673 50.006805 30,775 145 490 1088
2020-01-26 11:45:46 GMT 28.118637 49.990540 30,525 145 491 1408
2020-01-26 11:45:35 GMT 28.139385 49.974384 30,250 145 494 1344
2020-01-26 11:44:36 GMT 28.254410 49.886856 28,425 148 513 1152
2020-01-26 11:43:11 GMT 28.417162 49.749489 27,300 129 522 576
2020-01-26 11:42:58 GMT 28.436201 49.720673 27,150 124 522 704
2020-01-26 11:42:43 GMT 28.454407 49.687729 26,975 121 522 640
2020-01-26 11:42:28 GMT 28.473444 49.652012 26,825 121 519 384
2020-01-26 11:42:14 GMT 28.490982 49.619064 26,700 121 517 640
2020-01-26 11:42:00 GMT 28.508835 49.585575 26,500 121 516 896
2020-01-26 11:41:42 GMT 28.530098 49.545753 26,275 121 515 640
2020-01-26 11:41:29 GMT 28.547089 49.513821 26,125 121 512 448
2020-01-26 11:41:15 GMT 28.563766 49.482578 26,025 121 509 448
2020-01-26 11:41:00 GMT 28.582470 49.447201 25,775 121 507 1472
2020-01-26 11:40:45 GMT 28.600159 49.414944 25,350 122 512 1600
2020-01-26 11:40:27 GMT 28.623993 49.374065 25,125 123 512 576
2020-01-26 11:40:11 GMT 28.645128 49.337875 24,975 123 508 576
2020-01-26 11:40:04 GMT 28.654404 49.321747 24,875 123 508 896
2020-01-26 11:39:51 GMT 28.671204 49.292908 24,675 123 506 832
2020-01-26 11:39:37 GMT 28.689423 49.261639 24,450 123 506 896
2020-01-26 11:39:22 GMT 28.708439 49.228714 24,250 123 505 768
2020-01-26 11:39:09 GMT 28.725449 49.199524 24,050 123 503 832
2020-01-26 11:38:50 GMT 28.749311 49.158485 23,775 123 501 896
2020-01-26 11:38:41 GMT 28.761154 49.138203 23,625 123 500 1024
2020-01-26 11:38:24 GMT 28.782257 49.101650 23,350 123 499 1024
2020-01-26 11:38:13 GMT 28.796888 49.076088 23,125 123 498 1088
2020-01-26 11:37:59 GMT 28.814392 49.045876 22,900 123 496 960
2020-01-26 11:37:55 GMT 28.819513 49.037098 22,825 123 496 960
2020-01-26 11:37:44 GMT 28.832920 49.014103 22,650 123 495 832
2020-01-26 11:37:31 GMT 28.850098 48.984589 22,475 123 492 896
2020-01-26 11:37:25 GMT 28.856964 48.972404 22,375 123 491 832
2020-01-26 11:37:17 GMT 28.867414 48.954216 22,275 123 488 704
2020-01-26 11:37:02 GMT 28.885290 48.923306 22,000 123 486 1472
2020-01-26 11:36:49 GMT 28.902098 48.894115 21,700 123 486 1024
2020-01-26 11:36:35 GMT 28.919449 48.864071 21,425 123 484 1280
2020-01-26 11:36:21 GMT 28.936592 48.834229 21,125 123 482 1216
2020-01-26 11:36:06 GMT 28.954971 48.802433 20,850 123 480 960
2020-01-26 11:35:55 GMT 28.967834 48.779984 20,675 123 477 960
2020-01-26 11:35:52 GMT 28.971600 48.773266 20,600 123 476 960
2020-01-26 11:35:41 GMT 28.984497 48.750935 20,425 123 473 1152
2020-01-26 11:35:29 GMT 28.998550 48.726425 20,175 123 470 1280
2020-01-26 11:35:25 GMT 29.004559 48.715912 20,050 123 469 1408
2020-01-26 11:35:20 GMT 29.009537 48.707359 19,950 123 469 1472
2020-01-26 11:35:10 GMT 29.021896 48.685703 19,675 123 468 1536
2020-01-26 11:34:59 GMT 29.034632 48.663403 19,400 123 466 1408
2020-01-26 11:34:49 GMT 29.046129 48.643314 19,175 123 464 1600
2020-01-26 11:34:43 GMT 29.053995 48.629742 19,000 123 463 1536
2020-01-26 11:34:37 GMT 29.060373 48.618595 18,875 123 463 1472
2020-01-26 11:34:28 GMT 29.070831 48.600243 18,650 123 460 1280
2020-01-26 11:34:25 GMT 29.074265 48.594063 18,575 123 460 1408
2020-01-26 11:34:15 GMT 29.086817 48.572281 18,350 123 458 1792
2020-01-26 11:34:04 GMT 29.099167 48.550800 18,000 123 458 1472
2020-01-26 11:34:01 GMT 29.103104 48.543938 17,925 123 455 1344
2020-01-26 11:33:57 GMT 29.107391 48.536198 17,825 123 454 1280
2020-01-26 11:33:46 GMT 29.119263 48.515247 17,600 123 450 1600
2020-01-26 11:33:33 GMT 29.134689 48.488159 16,825 122 450 2496
2020-01-26 11:33:25 GMT 29.142929 48.473740 16,825 122 451 2048
2020-01-26 11:33:18 GMT 29.151197 48.459293 16,600 123 450 1728
2020-01-26 11:33:15 GMT 29.154602 48.453457 16,500 123 450 1600
2020-01-26 11:33:04 GMT 29.167677 48.430641 16,225 123 447 1536
2020-01-26 11:32:54 GMT 29.178802 48.410877 15,950 122 444 1600
2020-01-26 11:32:43 GMT 29.190674 48.390144 15,625 123 442 1792
2020-01-26 11:32:36 GMT 29.198727 48.376034 15,450 122 441 1152
2020-01-26 11:32:33 GMT 29.202171 48.370056 15,400 123 438 960
2020-01-26 11:32:22 GMT 29.214020 48.349247 15,250 122 431 640
2020-01-26 11:32:08 GMT 29.229813 48.321304 15,100 122 419 576
2020-01-26 11:32:02 GMT 29.235626 48.311005 15,025 122 413 1088
2020-01-26 11:31:54 GMT 29.244394 48.295685 14,825 122 409 1856
2020-01-26 11:31:51 GMT 29.246443 48.292130 14,750 122 408 2176
2020-01-26 11:31:40 GMT 29.257965 48.271656 14,400 122 405 1472
2020-01-26 11:31:31 GMT 29.267578 48.254490 14,125 122 399 1856
2020-01-26 11:31:27 GMT 29.271675 48.247482 14,000 122 397 2432
2020-01-26 11:31:20 GMT 29.278193 48.235798 13,725 122 397 2560
2020-01-26 11:31:12 GMT 29.286621 48.220844 13,350 122 397 2496
2020-01-26 11:31:09 GMT 29.288853 48.217110 13,275 122 397 2432
2020-01-26 11:30:58 GMT 29.299988 48.197338 12,875 122 393 1920
2020-01-26 11:30:53 GMT 29.304634 48.188942 12,700 122 391 2176
2020-01-26 11:30:43 GMT 29.315294 48.170200 12,300 122 389 2240
2020-01-26 11:30:33 GMT 29.325069 48.152863 11,875 123 386 2752
2020-01-26 11:30:22 GMT 29.335545 48.134712 11,425 122 386 2176
2020-01-26 11:30:17 GMT 29.340683 48.125401 11,225 122 383 1728
2020-01-26 11:30:11 GMT 29.345507 48.116508 11,100 119 380 1152
2020-01-26 11:30:02 GMT 29.352722 48.099674 10,950 111 369 768
2020-01-26 11:29:51 GMT 29.358215 48.080425 10,800 105 354 896
2020-01-26 11:29:40 GMT 29.363022 48.060696 10,625 105 341 832
2020-01-26 11:29:35 GMT 29.365402 48.051083 10,550 105 335 832
2020-01-26 11:29:30 GMT 29.367279 48.042843 10,475 105 329 832
2020-01-26 11:29:19 GMT 29.371582 48.025520 10,325 105 315 1088
2020-01-26 11:29:08 GMT 29.376045 48.007832 10,025 105 305 2112
2020-01-26 11:28:58 GMT 29.381910 47.983433 9,350 105 299 2560
2020-01-26 11:28:47 GMT 29.383959 47.975197 9,100 104 297 2752
2020-01-26 11:28:37 GMT 29.387217 47.959255 8,575 102 295 3392
2020-01-26 11:28:26 GMT 29.389078 47.943096 8,025 90 296 2752
2020-01-26 11:28:16 GMT 29.386845 47.926994 7,600 71 289 1856
2020-01-26 11:28:10 GMT 29.384125 47.919773 7,450 62 282 1856
2020-01-26 11:28:06 GMT 29.380699 47.913422 7,275 54 276 2240
2020-01-26 11:27:56 GMT 29.371435 47.902760 6,800 36 267 3264
2020-01-26 11:27:45 GMT 29.360413 47.896271 6,200 17 262 3264
2020-01-26 11:27:33 GMT 29.346857 47.894360 5,675 357 255 2496
2020-01-26 11:27:29 GMT 29.341225 47.895382 5,475 348 250 2432
2020-01-26 11:27:23 GMT 29.335373 47.897118 5,250 344 247 2240
2020-01-26 11:27:13 GMT 29.324743 47.901897 4,875 335 237 2560
2020-01-26 11:27:03 GMT 29.314407 47.907417 4,350 335 233 3520
2020-01-26 11:26:52 GMT 29.303787 47.913067 3,675 335 236 3392
2020-01-26 11:26:42 GMT 29.293461 47.918594 3,125 335 233 3072
2020-01-26 11:26:31 GMT 29.283360 47.923870 2,575 336 232 3200
2020-01-26 11:26:20 GMT 29.272705 47.929386 2,075 336 226 1920
2020-01-26 11:26:10 GMT 29.263109 47.934372 1,825 336 212 1216
2020-01-26 11:26:04 GMT 29.258102 47.936939 1,725 336 205 1024
2020-01-26 11:26:00 GMT 29.253984 47.939167 1,650 336 196 320
2020-01-26 11:25:48 GMT 29.245092 47.943798 1,550 335 175 768
2020-01-26 11:25:37 GMT 29.237503 47.948086 1,400 335 162 960
2020-01-26 11:25:27 GMT 29.230476 47.951878 1,150 335 151 1856
2020-01-26 11:25:16 GMT 29.223633 47.955647 650 335 154 3008
2020-01-26 11:25:05 GMT 29.216217 47.959602 175 336 159 2368
2020-01-26 11:24:55 GMT 29.209557 47.963047 0 334 165
2020-01-26 11:24:40 GMT 29.201660 47.967346 0 334 120
2020-01-26 11:24:27 GMT 29.196682 47.970085 0 334 58
2020-01-26 11:24:05 GMT 29.194107 47.969566 0 75 19
2020-01-26 11:23:58 GMT 29.194279 47.969055 0 146 22
2020-01-26 11:23:42 GMT 29.196682 47.967854 0 154 40
2020-01-26 11:23:29 GMT 29.198742 47.966652 0 154 41
2020-01-26 11:23:16 GMT 29.200800 47.965622 0 154 42
2020-01-26 11:23:03 GMT 29.203209 47.964424 0 154 44
2020-01-26 11:22:49 GMT 29.205780 47.963226 0 154 46
2020-01-26 11:22:35 GMT 29.208527 47.961845 0 154 45
2020-01-26 11:22:21 GMT 29.211100 47.960480 0 154 43
2020-01-26 11:22:04 GMT 29.214020 47.959099 0 154 43
2020-01-26 11:21:51 GMT 29.216429 47.957893 0 154 41
2020-01-26 11:21:39 GMT 29.218140 47.957039 0 154 32
2020-01-26 11:21:25 GMT 29.219513 47.956352 0 151 17
2020-01-26 11:21:11 GMT 29.219856 47.955666 0 67 11
2020-01-26 11:20:57 GMT 29.219688 47.955498 0 61 2
2020-01-26 11:20:25 GMT 29.219513 47.955666 0 64 2
2020-01-26 11:20:15 GMT 29.219337 47.955498 0 64 16
2020-01-26 11:20:01 GMT 29.218655 47.953777 0 67 30
2020-01-26 11:19:47 GMT 29.217796 47.951889 0 64 32
2020-01-26 11:19:32 GMT 29.216766 47.949657 0 64 34
2020-01-26 11:19:19 GMT 29.215908 47.947769 0 64 29
2020-01-26 11:19:05 GMT 29.215221 47.946396 0 67 18
2020-01-26 11:18:49 GMT 29.215908 47.945366 0 165 21
2020-01-26 11:18:32 GMT 29.216942 47.945023 0 149 10
2020-01-26 11:18:22 GMT 29.217281 47.944851 0 84 8
2020-01-26 11:18:09 GMT 29.217110 47.944508 0 64 6
2020-01-26 11:16:52 GMT 29.216595 47.944851 0 42 3
2020-01-26 11:16:23 GMT 29.216595 47.945194 0 42 3
2020-01-26 11:16:16 GMT 29.216423 47.945366 0 42 3
2020-01-26 11:16:02 GMT 29.216595 47.945538 0 36 4
2020-01-26 11:15:49 GMT 29.216429 47.945709 0 59 5
2020-01-26 11:15:35 GMT 29.216423 47.946053 0 73 4
2020-01-26 11:15:21 GMT 29.216429 47.946220 0 78 4
2020-01-26 11:15:07 GMT 29.216429 47.946571 0 87 5
2020-01-26 11:14:53 GMT 29.216251 47.946739 0 98 5
2020-01-26 11:14:37 GMT 29.216253 47.947083 0 120 5
2020-01-26 11:14:24 GMT 29.216080 47.947254 0 137 5
2020-01-26 11:14:11 GMT 29.215904 47.947433 0 146 4
2020-01-26 11:13:56 GMT 29.215736 47.947769 0 154 4
2020-01-26 11:13:43 GMT 29.215736 47.947941 0 154 4
We lost coverage of the aircraft here for a total of 116 minutes
2020-01-26 09:17:35 GMT 29.216429 47.958755 0 154 3 0
2020-01-26 09:17:23 GMT 29.216423 47.958584 0 154 3 0
2020-01-26 09:17:10 GMT 29.216766 47.958412 0 168 11 0
2020-01-26 09:16:56 GMT 29.216766 47.958580 0 331 19 0
2020-01-26 09:16:42 GMT 29.215904 47.959106 0 264 15 0
2020-01-26 09:16:28 GMT 29.216593 47.960480 0 244 26 0
2020-01-26 09:16:12 GMT 29.217453 47.962704 0 247 35 0
2020-01-26 09:16:00 GMT 29.218311 47.964764 0 247 35 0
2020-01-26 09:15:45 GMT 29.219170 47.966995 0 247 31 0
2020-01-26 09:15:30 GMT 29.220024 47.968880 0 250 20 0
2020-01-26 09:15:17 GMT 29.219175 47.969742 0 331 33 0
2020-01-26 09:15:04 GMT 29.217625 47.971630 0 303 43 0
2020-01-26 09:14:48 GMT 29.215393 47.973862 0 334 55 0
2020-01-26 09:14:36 GMT 29.211617 47.975750 0 337 76 0
2020-01-26 09:14:22 GMT 29.207153 47.977982 0 334 84 0
2020-01-26 09:14:08 GMT 29.201836 47.980553 0 334 110 0
2020-01-26 09:13:54 GMT 29.194445 47.984295 -125 336 130 -320
2020-01-26 09:13:40 GMT 29.186903 47.988068 75 337 128 -704
2020-01-26 09:13:26 GMT 29.179316 47.992050 250 336 129 -832
2020-01-26 09:13:12 GMT 29.171448 47.995983 400 337 131 -640
2020-01-26 09:13:00 GMT 29.164558 47.999428 575 337 133 -832
2020-01-26 09:12:44 GMT 29.155975 48.003864 725 336 127 -704
2020-01-26 09:12:38 GMT 29.153046 48.005447 800 337 128 -640
2020-01-26 09:12:29 GMT 29.148079 48.007832 900 336 129 -768
2020-01-26 09:12:24 GMT 29.144493 48.009716 900 336 129 -768
2020-01-26 09:12:15 GMT 29.139999 48.011944 1,075 336 129 -576
2020-01-26 09:12:07 GMT 29.136068 48.014023 1,175 336 134 -896
2020-01-26 09:12:02 GMT 29.132812 48.015747 1,250 336 136 -640
2020-01-26 09:11:48 GMT 29.124207 48.020023 1,475 336 147 -768
2020-01-26 09:11:34 GMT 29.115463 48.024464 1,575 337 150 -576
2020-01-26 09:11:20 GMT 29.106354 48.029110 1,775 336 159 -896
2020-01-26 09:11:06 GMT 29.096779 48.034111 1,975 336 164 -1024
2020-01-26 09:10:52 GMT 29.086954 48.039066 2,225 335 161 -320
2020-01-26 09:10:38 GMT 29.077011 48.044216 2,125 337 178 -128
2020-01-26 09:10:24 GMT 29.066380 48.049728 2,125 336 184 128
2020-01-26 09:10:15 GMT 29.058975 48.053513 2,125 336 183 0
2020-01-26 09:10:10 GMT 29.055405 48.055363 2,150 335 178 128
2020-01-26 09:10:04 GMT 29.050737 48.057968 2,150 335 178 128
2020-01-26 09:09:55 GMT 29.044733 48.061199 2,125 333 180 0
2020-01-26 09:09:48 GMT 29.038742 48.064655 2,150 332 180 0
2020-01-26 09:09:42 GMT 29.034958 48.067230 2,150 328 180 -64
2020-01-26 09:09:33 GMT 29.028946 48.072529 2,125 319 179 64
2020-01-26 09:09:28 GMT 29.025694 48.076172 2,150 311 181 -64
2020-01-26 09:09:22 GMT 29.022619 48.080803 2,150 307 181 -64
2020-01-26 09:09:15 GMT 29.018803 48.087158 2,150 305 181 0
2020-01-26 09:09:06 GMT 29.015396 48.092812 2,125 305 182 0
2020-01-26 09:08:59 GMT 29.011597 48.098991 2,150 305 185 -64
2020-01-26 09:08:56 GMT 29.009903 48.101734 2,150 305 185 0
2020-01-26 09:08:46 GMT 29.005280 48.109447 2,150 305 185 0
2020-01-26 09:08:35 GMT 29.000290 48.117687 2,150 305 185 0
2020-01-26 09:08:26 GMT 28.995483 48.126297 2,125 303 187 128
2020-01-26 09:08:12 GMT 28.989149 48.137459 2,125 306 185 -64
2020-01-26 09:08:05 GMT 28.985001 48.144150 2,150 306 185 -64
2020-01-26 09:07:54 GMT 28.980194 48.151859 2,150 305 182 64
2020-01-26 09:07:47 GMT 28.976761 48.157356 2,125 305 184 0
2020-01-26 09:07:44 GMT 28.975044 48.160454 2,125 305 185 0
2020-01-26 09:07:33 GMT 28.970249 48.168533 2,150 305 183 64
2020-01-26 09:07:23 GMT 28.965088 48.176895 2,150 306 184 -192
2020-01-26 09:07:13 GMT 28.960098 48.184978 2,150 305 186 0
2020-01-26 09:07:02 GMT 28.954794 48.193577 2,150 305 186 128
2020-01-26 09:06:50 GMT 28.948975 48.203377 2,125 305 197 0
2020-01-26 09:06:41 GMT 28.944319 48.211079 2,125 304 199 0
2020-01-26 09:06:37 GMT 28.942245 48.214504 2,125 304 199 0
2020-01-26 09:06:29 GMT 28.937988 48.221901 2,150 304 198 -64
2020-01-26 09:06:21 GMT 28.933502 48.229771 2,175 303 197 0
2020-01-26 09:06:09 GMT 28.928375 48.239063 2,150 303 203 0
2020-01-26 09:06:00 GMT 28.919926 48.253300 2,150 304 218 64
2020-01-26 09:05:48 GMT 28.916840 48.258610 2,150 304 225 0
2020-01-26 09:05:40 GMT 28.911873 48.267410 2,150 304 246 0
2020-01-26 09:05:33 GMT 28.907078 48.275433 2,150 304 246 0
2020-01-26 09:05:27 GMT 28.903473 48.281269 2,150 305 262 0
2020-01-26 09:05:17 GMT 28.896606 48.292782 2,125 305 279 64
2020-01-26 09:05:08 GMT 28.889063 48.305485 2,100 305 300 -128
2020-01-26 09:04:56 GMT 28.880447 48.319721 2,150 305 306 -320
2020-01-26 09:04:53 GMT 28.878077 48.323849 2,150 305 308 -576
2020-01-26 09:04:44 GMT 28.869974 48.337421 2,300 304 310 -704
2020-01-26 09:04:31 GMT 28.860199 48.353901 2,550 304 313 -1856
2020-01-26 09:04:25 GMT 28.854538 48.363506 2,825 304 314 -2368
2020-01-26 09:04:13 GMT 28.845118 48.379318 3,300 305 317 -2432
2020-01-26 09:04:03 GMT 28.836691 48.393375 3,725 304 320 -2304
2020-01-26 09:03:55 GMT 28.829498 48.405548 4,000 304 324 -1920
2020-01-26 09:03:44 GMT 28.820892 48.420181 4,425 304 327 -2688
2020-01-26 09:03:33 GMT 28.811972 48.435436 4,850 305 330 -1984
2020-01-26 09:03:24 GMT 28.803406 48.449707 5,175 304 335 -2176
2020-01-26 09:03:13 GMT 28.794296 48.464973 5,475 304 340 -1280
2020-01-26 09:03:01 GMT 28.783493 48.483143 5,625 305 345 -128
2020-01-26 09:02:58 GMT 28.781433 48.486786 5,625 305 345 -128
2020-01-26 09:02:46 GMT 28.770447 48.505123 5,650 305 346 0
2020-01-26 09:02:37 GMT 28.762207 48.519016 5,625 305 346 0
2020-01-26 09:02:30 GMT 28.755829 48.529682 5,650 305 346 0
2020-01-26 09:02:21 GMT 28.747078 48.544437 5,650 305 346 0
2020-01-26 09:02:05 GMT 28.733717 48.566788 5,650 305 346 0
2020-01-26 09:01:32 GMT 28.703659 48.617249 5,625 304 347 0
2020-01-26 09:01:18 GMT 28.691307 48.638199 5,625 304 345 0
2020-01-26 09:01:04 GMT 28.678925 48.658932 5,625 305 345 0
2020-01-26 09:00:50 GMT 28.666397 48.679893 5,700 304 343 -448
2020-01-26 09:00:35 GMT 28.653030 48.702709 5,900 304 343 -1472
2020-01-26 09:00:21 GMT 28.639961 48.724525 6,400 305 351 -2624
2020-01-26 09:00:07 GMT 28.627253 48.745800 7,025 305 356 -2304
2020-01-26 08:59:08 GMT 28.570770 48.840038 9,550 305 365 -960
2020-01-26 08:58:54 GMT 28.558411 48.860798 9,650 305 367 0
2020-01-26 08:57:25 GMT 28.472420 49.004139 9,625 305 371 0
2020-01-26 08:57:14 GMT 28.461960 49.021683 9,625 305 370 0
2020-01-26 08:56:53 GMT 28.441368 49.056004 9,625 304 368 0
2020-01-26 08:56:45 GMT 28.433441 49.069061 9,675 304 368 -448
2020-01-26 08:56:33 GMT 28.422283 49.087936 9,850 304 366 -1280
2020-01-26 08:56:19 GMT 28.409271 49.110260 10,275 304 373 -2688
2020-01-26 08:56:05 GMT 28.396027 49.132366 11,050 305 373 -4224
2020-01-26 08:55:10 GMT 28.341293 49.223873 14,500 305 389 -5184
2020-01-26 08:55:05 GMT 28.336487 49.231956 14,900 305 387 -5184
2020-01-26 08:54:52 GMT 28.323265 49.253918 15,950 304 381 -3648
2020-01-26 08:54:38 GMT 28.309708 49.276588 16,700 305 379 -3648
2020-01-26 08:54:24 GMT 28.295799 49.299423 17,600 306 370 -3072
2020-01-26 08:54:10 GMT 28.281042 49.321720 17,950 308 372 -192
2020-01-26 08:53:56 GMT 28.266937 49.342831 17,975 307 370 0
2020-01-26 08:53:42 GMT 28.252533 49.364635 18,025 307 368 -320
2020-01-26 08:53:27 GMT 28.237238 49.387478 18,200 308 373 -1408
2020-01-26 08:53:13 GMT 28.223328 49.411488 18,700 298 381 -2688
2020-01-26 08:53:00 GMT 28.215963 49.435730 19,450 282 384 -4032
2020-01-26 08:52:46 GMT 28.213915 49.464382 20,400 268 394 -3264
2020-01-26 08:52:31 GMT 28.218384 49.495098 21,225 254 411 -3520
2020-01-26 08:51:44 GMT 28.268660 49.579037 25,400 221 425 -5696
2020-01-26 08:51:36 GMT 28.281881 49.590401 26,225 213 425 -5952
2020-01-26 08:51:22 GMT 28.306274 49.605808 27,525 203 430 -4928
2020-01-26 08:51:07 GMT 28.333740 49.616142 28,475 193 441 -2368
2020-01-26 08:50:52 GMT 28.364792 49.621258 28,825 182 460 -640
2020-01-26 08:50:39 GMT 28.392609 49.621124 28,950 175 467 -128
2020-01-26 08:50:26 GMT 28.421120 49.616467 28,975 166 474 0
2020-01-26 08:50:11 GMT 28.452347 49.605492 29,050 158 480 -448
2020-01-26 08:49:57 GMT 28.482056 49.588837 29,300 149 490 -1600
2020-01-26 08:49:39 GMT 28.514503 49.562073 29,950 141 500 -2624
2020-01-26 08:49:29 GMT 28.530807 49.544010 30,400 129 505 -3840
2020-01-26 08:49:13 GMT 28.555328 49.509888 31,425 127 505 -3520
2020-01-26 08:49:01 GMT 28.572693 49.485485 31,875 130 505 -1920
2020-01-26 08:48:47 GMT 28.594992 49.457325 32,325 133 506 -1920
2020-01-26 08:48:29 GMT 28.624506 49.424046 32,825 137 505 -1216
2020-01-26 08:48:07 GMT 28.664337 49.385395 33,000 141 503 0
2020-01-26 08:47:54 GMT 28.688187 49.365322 33,000 144 498 0
2020-01-26 08:47:39 GMT 28.717209 49.343189 32,975 146 494 64
2020-01-26 08:47:15 GMT 28.762527 49.309547 32,975 146 494 0
2020-01-26 08:47:00 GMT 28.792419 49.287415 32,975 146 494 0
2020-01-26 08:46:37 GMT 28.835993 49.254940 32,975 146 492 0
2020-01-26 08:46:21 GMT 28.866211 49.232639 32,975 146 492 0
2020-01-26 08:46:07 GMT 28.892487 49.213047 32,975 146 491 0
2020-01-26 08:45:49 GMT 28.926491 49.187675 32,975 146 491 0
2020-01-26 08:45:24 GMT 28.974346 49.151970 32,975 146 491 0
2020-01-26 08:45:19 GMT 28.984314 49.144592 32,975 146 490 0
2020-01-26 08:44:56 GMT 29.028442 49.111794 33,000 146 490 0
2020-01-26 08:44:30 GMT 29.076668 49.075710 33,000 146 490 0
2020-01-26 08:44:14 GMT 29.107065 49.052933 33,000 146 490 0
2020-01-26 08:43:58 GMT 29.137436 49.030239 33,000 146 490 0
2020-01-26 08:43:46 GMT 29.161299 49.012379 33,000 146 490 0
2020-01-26 08:43:30 GMT 29.190994 48.990257 33,000 146 490 0
2020-01-26 08:43:17 GMT 29.215393 48.972202 32,975 146 491 0
2020-01-26 08:43:03 GMT 29.242485 48.951954 32,975 146 490 0
2020-01-26 08:42:49 GMT 29.268230 48.932568 32,975 146 490 0
2020-01-26 08:42:35 GMT 29.295555 48.911995 32,975 146 489 0
2020-01-26 08:42:21 GMT 29.323334 48.891220 32,975 146 490 0
2020-01-26 08:42:05 GMT 29.352535 48.869396 32,975 146 489 0
2020-01-26 08:41:53 GMT 29.375198 48.852242 32,975 146 489 64
2020-01-26 08:41:39 GMT 29.401794 48.832329 32,975 146 489 0
2020-01-26 08:41:25 GMT 29.427532 48.812901 32,975 146 489 0
2020-01-26 08:41:10 GMT 29.456068 48.791630 32,975 146 489 0
2020-01-26 08:40:57 GMT 29.480576 48.773117 32,975 146 489 0
2020-01-26 08:40:31 GMT 29.531067 48.735142 32,975 146 490 0
2020-01-26 08:40:26 GMT 29.540514 48.727974 32,975 146 490 0
2020-01-26 08:40:15 GMT 29.561090 48.712517 32,975 146 490 -64
2020-01-26 08:40:01 GMT 29.586868 48.693096 33,000 146 490 0
2020-01-26 08:39:47 GMT 29.614151 48.672497 33,000 146 490 0
2020-01-26 08:39:33 GMT 29.641439 48.651932 33,000 146 490 0
2020-01-26 08:39:09 GMT 29.686781 48.617573 33,000 146 492 0
2020-01-26 08:39:05 GMT 29.694672 48.611546 33,000 146 491 0
2020-01-26 08:38:51 GMT 29.720581 48.592003 33,000 146 492 0
2020-01-26 08:38:37 GMT 29.746857 48.572086 33,000 146 492 0
2020-01-26 08:38:23 GMT 29.774323 48.551121 33,000 146 493 0
2020-01-26 08:38:08 GMT 29.802464 48.529682 32,975 146 493 0
2020-01-26 08:37:54 GMT 29.829575 48.509235 32,975 146 494 0
2020-01-26 08:37:27 GMT 29.878483 48.467209 32,975 140 496 0
2020-01-26 08:37:13 GMT 29.902552 48.443516 32,975 138 497 0
2020-01-26 08:36:59 GMT 29.927271 48.418617 33,000 138 497 0
2020-01-26 08:36:44 GMT 29.953171 48.392513 33,000 138 497 0
2020-01-26 08:36:31 GMT 29.976013 48.369354 33,000 138 497 0
2020-01-26 08:36:17 GMT 30.000549 48.344639 33,025 138 498 0
2020-01-26 08:36:02 GMT 30.025450 48.319408 33,000 138 498 0
2020-01-26 08:35:49 GMT 30.048615 48.295898 33,025 138 498 0
2020-01-26 08:35:33 GMT 30.076097 48.268047 33,000 138 498 0
2020-01-26 08:35:21 GMT 30.097185 48.246624 33,000 138 498 0
2020-01-26 08:35:06 GMT 30.123138 48.220181 33,000 138 498 0
2020-01-26 08:34:53 GMT 30.146622 48.196320 33,025 138 498 0
2020-01-26 08:34:38 GMT 30.170832 48.171753 33,000 138 498 0
2020-01-26 08:34:25 GMT 30.195053 48.147205 33,000 138 498 0
2020-01-26 08:34:10 GMT 30.219944 48.121986 33,000 138 498 0
2020-01-26 08:33:56 GMT 30.243778 48.097595 32,975 138 497 64
2020-01-26 08:33:42 GMT 30.269028 48.072025 32,975 138 497 0
2020-01-26 08:33:18 GMT 30.309357 48.030827 32,975 138 496 0
2020-01-26 08:33:14 GMT 30.317276 48.022747 32,975 138 495 0
2020-01-26 08:32:54 GMT 30.350555 47.988766 32,975 138 495 0
2020-01-26 08:32:46 GMT 30.364302 47.974712 32,975 138 495 0
2020-01-26 08:32:33 GMT 30.387299 47.951202 32,975 138 495 0
2020-01-26 08:32:11 GMT 30.424028 47.913574 32,975 138 493 0
2020-01-26 08:32:03 GMT 30.438274 47.898853 32,975 138 493 0
2020-01-26 08:31:49 GMT 30.461643 47.874958 32,975 138 493 0
2020-01-26 08:31:35 GMT 30.486874 47.849030 32,975 138 493 0
2020-01-26 08:31:21 GMT 30.510223 47.825211 32,975 138 493 0
2020-01-26 08:31:07 GMT 30.534073 47.800652 33,000 138 492 0
2020-01-26 08:30:52 GMT 30.559662 47.774372 33,000 138 492 0
2020-01-26 08:30:40 GMT 30.581131 47.752235 33,000 138 492 0
2020-01-26 08:30:13 GMT 30.626083 47.705868 33,000 138 492 0
2020-01-26 08:30:08 GMT 30.635376 47.696281 33,000 138 492 0
2020-01-26 08:29:51 GMT 30.663679 47.667095 33,000 138 493 0
2020-01-26 08:28:37 GMT 30.789837 47.536469 32,975 138 493 0
2020-01-26 08:28:17 GMT 30.825029 47.500050 32,975 138 493 0
2020-01-26 08:28:02 GMT 30.849237 47.474998 32,975 138 493 0
2020-01-26 08:27:49 GMT 30.872772 47.450436 32,975 138 493 0
2020-01-26 08:27:34 GMT 30.897125 47.425018 33,000 138 493 0
2020-01-26 08:27:20 GMT 30.921158 47.399815 33,000 138 493 0
2020-01-26 08:27:06 GMT 30.945368 47.374584 33,000 137 492 0

Making use of Plane Finder data

You are free to use the raw flight data, aircraft information and images provided in this report for your own purposes provided the data is correctly attributed to Plane Finder. We ask that you please credit Plane Finder and link to planefinder.net in close proximity to the content.

Optionally one of the following logos (no smaller then 150x24px) can be used and must link to planefinder.net

Embedding the Plane Finder map

You are welcome to embed the Plane Finder playback map on your website to offer visitors a more interactive experience. We suggest using the following HTML code:

<iframe src="//planefinder.net/data/report/6Q741-YK-BAE-7700-squawk-2020-01-26/map" width="800" height="600" seamless="seamless"></iframe>

Where our data comes from

Plane Finder has a global network of data feeds and antenna radars that receive data broadcast directly from aircraft. The primary technologies used are ADS-B and MLAT. We also show feeds from the FAA and a FLARM glider feed.

Click here to find out more about the Plane Finder network.

How we collect our data